createdAt,value
2017-08-20T00:00:52.060Z,12.43
2017-08-20T00:03:19.537Z,8.47
2017-08-20T00:05:47.595Z,4.70
2017-08-20T00:08:15.116Z,8.87
2017-08-20T00:10:42.612Z,6.73
2017-08-20T00:13:10.188Z,11.27
2017-08-20T00:15:37.748Z,6.83
2017-08-20T00:18:05.292Z,10.73
2017-08-20T00:20:32.784Z,10.13
2017-08-20T00:23:00.302Z,10.10
2017-08-20T00:25:27.814Z,7.30
2017-08-20T00:27:55.361Z,13.50
2017-08-20T00:30:22.905Z,10.57
2017-08-20T00:32:50.456Z,10.27
2017-08-20T00:35:17.941Z,15.43
2017-08-20T00:37:45.438Z,10.63
2017-08-20T00:40:12.989Z,5.73
2017-08-20T00:42:40.517Z,12.83
2017-08-20T00:45:08.017Z,11.37
2017-08-20T00:47:35.609Z,10.90
2017-08-20T00:50:03.116Z,10.93
2017-08-20T00:52:30.693Z,10.80
2017-08-20T00:54:58.197Z,16.00
2017-08-20T00:57:25.689Z,11.03
2017-08-20T00:59:53.195Z,15.13
2017-08-20T01:02:20.776Z,19.33
2017-08-20T01:04:48.325Z,14.30
2017-08-20T01:07:15.812Z,10.07
2017-08-20T01:09:43.413Z,10.73
2017-08-20T01:12:10.900Z,18.03
2017-08-20T01:14:38.404Z,18.47
2017-08-20T01:17:05.892Z,12.27
2017-08-20T01:19:33.482Z,11.47
2017-08-20T01:22:01.050Z,12.00
2017-08-20T01:24:28.578Z,22.17
2017-08-20T01:26:56.117Z,16.33
2017-08-20T01:29:23.676Z,17.30
2017-08-20T01:31:51.200Z,18.07
2017-08-20T01:34:18.749Z,11.77
2017-08-20T01:36:46.292Z,15.53
2017-08-20T01:39:13.768Z,9.20
2017-08-20T01:41:41.272Z,11.57
2017-08-20T01:44:08.761Z,14.13
2017-08-20T01:46:36.256Z,16.37
2017-08-20T01:49:03.740Z,12.40
2017-08-20T01:51:31.349Z,17.13
2017-08-20T01:53:58.892Z,15.53
2017-08-20T01:56:26.444Z,19.73
2017-08-20T01:58:54.721Z,13.93
2017-08-20T02:01:22.276Z,13.13
2017-08-20T02:03:49.777Z,11.70
2017-08-20T02:06:17.364Z,11.47
2017-08-20T02:08:44.909Z,14.17
2017-08-20T02:11:12.392Z,14.63
2017-08-20T02:13:39.991Z,15.53
2017-08-20T02:16:07.637Z,19.13
2017-08-20T02:18:35.184Z,20.30
2017-08-20T02:21:02.668Z,14.70
2017-08-20T02:23:30.169Z,18.80
2017-08-20T02:25:57.728Z,13.27
2017-08-20T02:28:25.229Z,22.13
2017-08-20T02:30:53.517Z,17.63
2017-08-20T02:33:21.074Z,21.93
2017-08-20T02:35:48.577Z,15.47
2017-08-20T02:38:16.832Z,15.97
2017-08-20T02:40:44.413Z,15.53
2017-08-20T02:43:11.958Z,24.03
2017-08-20T02:45:39.456Z,20.97
2017-08-20T02:48:06.942Z,23.57
2017-08-20T02:50:34.485Z,15.43
2017-08-20T02:53:02.036Z,11.80
2017-08-20T02:55:29.569Z,17.23
2017-08-20T02:57:57.052Z,15.87
2017-08-20T03:00:24.646Z,13.13
2017-08-20T03:02:52.176Z,21.93
2017-08-20T03:05:19.727Z,18.33
2017-08-20T03:07:47.234Z,22.17
2017-08-20T03:10:15.525Z,13.37
2017-08-20T03:12:43.169Z,22.93
2017-08-20T03:15:10.738Z,20.60
2017-08-20T03:17:38.248Z,16.37
2017-08-20T03:20:05.740Z,21.07
2017-08-20T03:22:33.325Z,19.37
2017-08-20T03:25:01.617Z,22.03
2017-08-20T03:27:29.140Z,21.57
2017-08-20T03:29:56.622Z,15.83
2017-08-20T03:32:24.236Z,15.13
2017-08-20T03:34:51.788Z,11.00
2017-08-20T03:37:19.296Z,21.73
2017-08-20T03:39:46.873Z,24.63
2017-08-20T03:42:14.521Z,18.77
2017-08-20T03:44:42.050Z,15.73
2017-08-20T03:47:10.298Z,22.20
2017-08-20T03:49:38.577Z,24.67
2017-08-20T03:52:06.133Z,25.07
2017-08-20T03:54:33.629Z,12.73
2017-08-20T03:57:01.108Z,24.57
2017-08-20T03:59:28.612Z,16.27
2017-08-20T04:01:56.101Z,18.73
2017-08-20T04:04:23.745Z,19.50
2017-08-20T04:06:51.287Z,18.20
2017-08-20T04:09:18.800Z,18.00
2017-08-20T04:11:46.280Z,21.63
2017-08-20T04:14:13.813Z,26.40
2017-08-20T04:16:41.301Z,17.23
2017-08-20T04:19:08.804Z,30.10
2017-08-20T04:21:36.285Z,11.83
2017-08-20T04:24:03.773Z,19.90
2017-08-20T04:26:32.041Z,26.60
2017-08-20T04:28:59.697Z,20.60
2017-08-20T04:31:27.237Z,18.13
2017-08-20T04:33:54.742Z,21.97
2017-08-20T04:36:22.353Z,17.63
2017-08-20T04:38:49.840Z,22.00
2017-08-20T04:41:17.421Z,22.13
2017-08-20T04:43:45.064Z,23.03
2017-08-20T04:46:12.712Z,21.13
2017-08-20T04:48:40.196Z,17.40
2017-08-20T04:51:07.797Z,18.17
2017-08-20T04:53:35.286Z,22.57
2017-08-20T04:56:02.815Z,19.43
2017-08-20T04:58:30.353Z,21.07
2017-08-20T05:00:57.850Z,20.00
2017-08-20T05:03:25.436Z,19.33
2017-08-20T05:05:52.933Z,20.03
2017-08-20T05:08:20.661Z,22.93
2017-08-20T05:10:48.152Z,23.70
2017-08-20T05:13:16.428Z,22.73
2017-08-20T05:15:43.912Z,21.63
2017-08-20T05:18:11.421Z,16.70
2017-08-20T05:20:38.903Z,13.80
2017-08-20T05:23:06.421Z,25.77
2017-08-20T05:25:33.904Z,24.63
2017-08-20T05:28:01.390Z,26.53
2017-08-20T05:30:28.932Z,22.00
2017-08-20T05:32:56.441Z,16.27
2017-08-20T05:35:23.941Z,22.60
2017-08-20T05:37:51.464Z,25.40
2017-08-20T05:40:19.017Z,27.00
2017-08-20T05:42:46.509Z,20.10
2017-08-20T05:45:14.097Z,22.83
2017-08-20T05:47:41.644Z,34.40
2017-08-20T05:50:09.218Z,29.67
2017-08-20T05:52:36.705Z,26.73
2017-08-20T05:55:04.274Z,22.50
2017-08-20T05:57:31.756Z,19.07
2017-08-20T05:59:59.284Z,18.57
2017-08-20T06:02:26.886Z,21.03
2017-08-20T06:04:54.413Z,16.97
2017-08-20T06:07:21.918Z,12.60
2017-08-20T06:09:49.409Z,20.23
2017-08-20T06:12:16.904Z,21.07
2017-08-20T06:14:44.384Z,17.67
2017-08-20T06:17:11.933Z,21.70
2017-08-20T06:19:39.481Z,20.90
2017-08-20T06:22:07.131Z,16.90
2017-08-20T06:24:34.809Z,16.40
2017-08-20T06:27:02.312Z,22.13
2017-08-20T06:29:29.861Z,15.67
2017-08-20T06:31:57.376Z,16.97
2017-08-20T06:34:25.657Z,19.40
2017-08-20T06:36:53.141Z,16.27
2017-08-20T06:39:20.636Z,18.33
2017-08-20T06:41:48.189Z,21.03
2017-08-20T06:44:15.693Z,18.47
2017-08-20T06:46:43.214Z,22.57
2017-08-20T06:49:10.826Z,15.20
2017-08-20T06:51:38.364Z,33.47
2017-08-20T06:54:05.909Z,18.40
2017-08-20T06:56:33.395Z,21.97
2017-08-20T06:59:00.959Z,28.80
2017-08-20T07:01:28.496Z,15.30
2017-08-20T07:03:56.065Z,16.50
2017-08-20T07:06:23.552Z,17.67
2017-08-20T07:08:51.854Z,18.37
2017-08-20T07:11:19.386Z,18.90
2017-08-20T07:13:46.871Z,21.80
2017-08-20T07:16:14.381Z,17.63
2017-08-20T07:18:41.875Z,17.00
2017-08-20T07:21:09.489Z,21.80
2017-08-20T07:23:37.015Z,16.53
2017-08-20T07:26:04.517Z,18.87
2017-08-20T07:28:32.013Z,17.37
2017-08-20T07:30:59.541Z,15.47
2017-08-20T07:33:27.037Z,17.47
2017-08-20T07:35:54.549Z,13.30
2017-08-20T07:38:22.037Z,14.27
2017-08-20T07:40:50.316Z,12.00
2017-08-20T07:43:17.800Z,16.83
2017-08-20T07:45:45.317Z,18.00
2017-08-20T07:48:12.826Z,18.40
2017-08-20T07:50:41.077Z,19.47
2017-08-20T07:53:08.573Z,24.70
2017-08-20T07:55:36.064Z,22.53
2017-08-20T07:58:03.650Z,14.03
2017-08-20T08:00:31.188Z,16.63
2017-08-20T08:02:58.761Z,14.63
2017-08-20T08:05:26.269Z,22.53
2017-08-20T08:07:54.550Z,15.53
2017-08-20T08:10:22.044Z,15.20
2017-08-20T08:12:49.601Z,23.57
2017-08-20T08:15:17.094Z,19.97
2017-08-20T08:17:44.664Z,19.87
2017-08-20T08:20:12.941Z,17.50
2017-08-20T08:22:40.489Z,21.33
2017-08-20T08:25:08.032Z,17.43
2017-08-20T08:27:35.573Z,21.57
2017-08-20T08:30:03.122Z,18.13
2017-08-20T08:32:30.656Z,14.53
2017-08-20T08:34:58.208Z,11.60
2017-08-20T08:37:25.692Z,18.23
2017-08-20T08:39:53.296Z,16.50
2017-08-20T08:42:20.841Z,14.47
2017-08-20T08:44:48.344Z,14.80
2017-08-20T08:47:15.920Z,10.43
2017-08-20T08:49:43.439Z,17.07
2017-08-20T08:52:11.723Z,21.70
2017-08-20T08:54:39.273Z,15.57
2017-08-20T08:57:06.778Z,18.20
2017-08-20T08:59:34.268Z,11.43
2017-08-20T09:02:01.810Z,12.60
2017-08-20T09:04:29.288Z,17.17
2017-08-20T09:06:56.788Z,13.93
2017-08-20T09:09:24.366Z,14.20
2017-08-20T09:11:51.873Z,23.00
2017-08-20T09:14:19.424Z,12.27
2017-08-20T09:16:46.928Z,9.43
2017-08-20T09:19:14.505Z,11.03
2017-08-20T09:21:42.056Z,13.53
2017-08-20T09:24:09.606Z,11.50
2017-08-20T09:26:37.169Z,12.80
2017-08-20T09:29:04.686Z,10.83
2017-08-20T09:31:32.180Z,16.50
2017-08-20T09:33:59.665Z,11.27
2017-08-20T09:36:27.221Z,14.93
2017-08-20T09:38:54.708Z,10.90
2017-08-20T09:41:22.214Z,9.97
2017-08-20T09:43:49.711Z,15.93
2017-08-20T09:46:17.289Z,12.03
2017-08-20T09:48:44.806Z,14.70
2017-08-20T09:51:13.061Z,10.87
2017-08-20T09:53:41.383Z,13.53
2017-08-20T09:56:08.870Z,14.10
2017-08-20T09:58:37.147Z,10.87
2017-08-20T10:01:04.645Z,14.67
2017-08-20T10:03:32.524Z,9.00
2017-08-20T10:06:02.757Z,10.07
2017-08-20T10:08:35.453Z,11.30
2017-08-20T10:11:10.765Z,9.00
2017-08-20T10:13:39.060Z,9.60
2017-08-20T10:16:10.171Z,9.47
2017-08-20T10:18:39.262Z,7.17
2017-08-20T10:21:10.769Z,8.60
2017-08-20T10:23:41.317Z,7.50
2017-08-20T10:26:09.813Z,10.30
2017-08-20T10:28:42.514Z,11.07
2017-08-20T10:31:10.883Z,10.70
2017-08-20T10:33:39.358Z,8.97
2017-08-20T10:36:08.379Z,9.50
2017-08-20T10:38:48.102Z,5.90
2017-08-20T10:41:15.633Z,10.60
2017-08-20T10:43:43.181Z,7.13
2017-08-20T10:46:11.948Z,6.87
2017-08-20T10:48:42.406Z,8.00
2017-08-20T10:51:10.716Z,8.37
2017-08-20T10:53:38.284Z,7.60
2017-08-20T10:56:05.797Z,6.20
2017-08-20T10:58:33.373Z,7.30
2017-08-20T11:01:00.905Z,7.63
2017-08-20T11:03:28.428Z,8.70
2017-08-20T11:05:56.085Z,4.77
2017-08-20T11:08:23.573Z,6.47
2017-08-20T11:10:51.169Z,14.47
2017-08-20T11:13:18.656Z,7.03
2017-08-20T11:15:46.160Z,10.97
2017-08-20T11:18:13.692Z,9.90
2017-08-20T11:20:41.371Z,6.30
2017-08-20T11:23:08.889Z,7.93
2017-08-20T11:25:36.427Z,9.77
2017-08-20T11:28:03.972Z,9.90
2017-08-20T11:30:31.512Z,7.80
2017-08-20T11:32:59.068Z,6.80
2017-08-20T11:35:26.716Z,7.70
2017-08-20T11:37:54.218Z,8.40
2017-08-20T11:40:21.713Z,13.17
2017-08-20T11:42:49.218Z,6.60
2017-08-20T11:45:16.771Z,7.70
2017-08-20T11:47:45.140Z,6.57
2017-08-20T11:50:12.687Z,7.33
2017-08-20T11:52:40.166Z,4.70
2017-08-20T11:55:07.686Z,6.43
2017-08-20T11:57:35.225Z,6.33
2017-08-20T12:00:02.730Z,6.40
2017-08-20T12:02:30.333Z,6.20
2017-08-20T12:04:57.838Z,4.93
2017-08-20T12:07:25.401Z,12.53
2017-08-20T12:09:52.956Z,11.33
2017-08-20T12:12:20.489Z,6.07
2017-08-20T12:14:48.027Z,5.30
2017-08-20T12:17:15.519Z,8.53
2017-08-20T12:19:43.118Z,5.53
2017-08-20T12:22:10.601Z,4.70
2017-08-20T12:24:38.080Z,4.90
2017-08-20T12:27:06.359Z,8.60
2017-08-20T12:29:33.921Z,6.60
2017-08-20T12:32:01.432Z,7.63
2017-08-20T12:34:29.684Z,4.93
2017-08-20T12:36:57.956Z,6.93
2017-08-20T12:39:26.238Z,4.70
2017-08-20T12:41:53.772Z,6.23
2017-08-20T12:44:21.325Z,5.67
2017-08-20T12:46:48.893Z,5.10
2017-08-20T12:49:16.421Z,4.00
2017-08-20T12:51:44.017Z,3.87
2017-08-20T12:54:11.504Z,7.80
2017-08-20T12:56:39.009Z,4.23
2017-08-20T12:59:06.548Z,4.67
2017-08-20T13:01:34.067Z,4.53
2017-08-20T13:04:01.645Z,3.83
2017-08-20T13:06:29.170Z,5.30
2017-08-20T13:08:56.720Z,5.20
2017-08-20T13:11:24.272Z,6.67
2017-08-20T13:13:51.845Z,7.13
2017-08-20T13:16:19.335Z,5.13
2017-08-20T13:18:47.836Z,7.90
2017-08-20T13:21:15.484Z,5.87
2017-08-20T13:23:43.021Z,6.13
2017-08-20T13:26:10.558Z,7.50
2017-08-20T13:28:38.132Z,6.60
2017-08-20T13:31:05.613Z,4.03
2017-08-20T13:33:33.112Z,7.60
2017-08-20T13:36:00.631Z,7.60
2017-08-20T13:38:28.173Z,6.00
2017-08-20T13:40:55.724Z,5.67
2017-08-20T13:43:23.268Z,7.00
2017-08-20T13:45:50.823Z,6.93
2017-08-20T13:48:18.351Z,5.47
2017-08-20T13:50:45.956Z,7.80
2017-08-20T13:53:13.639Z,4.33
2017-08-20T13:55:41.131Z,3.53
2017-08-20T13:58:09.376Z,4.87
2017-08-20T14:00:36.956Z,4.57
2017-08-20T14:03:04.434Z,7.00
2017-08-20T14:05:31.936Z,6.83
2017-08-20T14:07:59.486Z,5.17
2017-08-20T14:10:26.992Z,5.63
2017-08-20T14:12:54.478Z,4.90
2017-08-20T14:15:22.115Z,6.03
2017-08-20T14:17:49.688Z,4.47
2017-08-20T14:20:17.970Z,6.33
2017-08-20T14:22:45.458Z,3.70
2017-08-20T14:25:13.038Z,3.93
2017-08-20T14:27:40.552Z,4.17
2017-08-20T14:30:08.103Z,8.83
2017-08-20T14:32:35.648Z,3.93
2017-08-20T14:35:03.180Z,8.87
2017-08-20T14:37:30.729Z,11.10
2017-08-20T14:39:58.277Z,8.90
2017-08-20T14:42:25.772Z,4.60
2017-08-20T14:44:53.356Z,7.50
2017-08-20T14:47:20.905Z,3.23
2017-08-20T14:49:48.404Z,5.83
2017-08-20T14:52:15.908Z,6.40
2017-08-20T14:54:43.402Z,8.27
2017-08-20T14:57:10.900Z,8.20
2017-08-20T14:59:38.382Z,9.67
2017-08-20T15:02:05.933Z,7.33
2017-08-20T15:04:33.477Z,9.20
2017-08-20T15:07:01.012Z,8.93
2017-08-20T15:09:28.522Z,7.60
2017-08-20T15:11:56.101Z,6.97
2017-08-20T15:14:23.648Z,6.33
2017-08-20T15:16:51.193Z,9.17
2017-08-20T15:19:18.692Z,6.73
2017-08-20T15:21:46.177Z,4.80
2017-08-20T15:24:13.720Z,4.90
2017-08-20T15:26:41.205Z,11.80
2017-08-20T15:29:08.713Z,5.90
2017-08-20T15:31:36.276Z,7.77
2017-08-20T15:34:03.773Z,4.57
2017-08-20T15:36:32.029Z,15.17
2017-08-20T15:39:00.321Z,6.77
2017-08-20T15:41:27.868Z,6.30
2017-08-20T15:43:55.409Z,10.03
2017-08-20T15:46:22.957Z,7.80
2017-08-20T15:48:50.491Z,11.47
2017-08-20T15:51:18.041Z,8.70
2017-08-20T15:53:45.529Z,11.30
2017-08-20T15:56:13.229Z,7.47
2017-08-20T15:58:40.798Z,12.00
2017-08-20T16:01:08.320Z,10.20
2017-08-20T16:03:35.860Z,12.20
2017-08-20T16:06:03.409Z,7.83
2017-08-20T16:08:30.890Z,6.77
2017-08-20T16:10:58.391Z,6.93
2017-08-20T16:13:25.958Z,9.30
2017-08-20T16:15:53.484Z,9.13
2017-08-20T16:18:20.973Z,11.57
2017-08-20T16:20:48.501Z,10.53
2017-08-20T16:23:16.025Z,10.57
2017-08-20T16:25:43.554Z,7.53
2017-08-20T16:28:11.037Z,9.90
2017-08-20T16:30:42.280Z,12.37
2017-08-20T16:33:09.857Z,10.70
2017-08-20T16:35:37.408Z,10.20
2017-08-20T16:38:04.957Z,8.87
2017-08-20T16:40:32.445Z,6.50
2017-08-20T16:42:59.940Z,5.50
2017-08-20T16:45:27.418Z,7.33
2017-08-20T16:47:54.929Z,5.03
2017-08-20T16:50:22.601Z,11.90
2017-08-20T16:52:50.116Z,7.73
2017-08-20T16:55:17.660Z,7.07
2017-08-20T16:57:45.157Z,7.37
2017-08-20T17:00:12.637Z,7.60
2017-08-20T17:02:40.141Z,6.00
2017-08-20T17:05:07.625Z,6.03
2017-08-20T17:07:35.205Z,6.77
2017-08-20T17:10:02.689Z,7.43
2017-08-20T17:12:30.981Z,4.30
2017-08-20T17:14:58.525Z,6.67
2017-08-20T17:17:26.074Z,11.20
2017-08-20T17:19:53.625Z,4.90
2017-08-20T17:22:21.160Z,8.77
2017-08-20T17:24:48.681Z,11.33
2017-08-20T17:27:16.283Z,7.10
2017-08-20T17:29:43.826Z,11.57
2017-08-20T17:32:11.345Z,8.73
2017-08-20T17:34:38.899Z,8.00
2017-08-20T17:37:06.405Z,15.47
2017-08-20T17:39:33.968Z,10.10
2017-08-20T17:42:01.512Z,7.40
2017-08-20T17:44:29.213Z,6.53
2017-08-20T17:46:56.700Z,8.13
2017-08-20T17:49:24.258Z,8.97
2017-08-20T17:51:51.754Z,11.13
2017-08-20T17:54:19.317Z,7.43
2017-08-20T17:56:47.592Z,9.97
2017-08-20T17:59:15.145Z,7.47
2017-08-20T18:01:42.691Z,8.77
2017-08-20T18:04:10.224Z,5.27
2017-08-20T18:06:37.796Z,6.20
2017-08-20T18:09:05.781Z,7.33
2017-08-20T18:11:36.460Z,6.17
2017-08-20T18:14:11.485Z,4.10
2017-08-20T18:16:39.134Z,9.50
2017-08-20T18:19:08.064Z,6.27
2017-08-20T18:21:36.427Z,7.13
2017-08-20T18:24:06.437Z,6.80
2017-08-20T18:26:36.144Z,8.97
2017-08-20T18:29:03.628Z,8.30
2017-08-20T18:31:31.224Z,7.07
2017-08-20T18:33:58.773Z,5.47
2017-08-20T18:36:26.305Z,8.37
2017-08-20T18:38:53.800Z,5.63
2017-08-20T18:41:21.301Z,4.57
2017-08-20T18:43:48.789Z,7.77
2017-08-20T18:46:16.393Z,7.57
2017-08-20T18:48:43.937Z,8.67
2017-08-20T18:51:11.485Z,8.43
2017-08-20T18:53:39.055Z,6.77
2017-08-20T18:56:06.668Z,5.47
2017-08-20T18:58:34.148Z,8.83
2017-08-20T19:01:01.658Z,7.93
2017-08-20T19:03:29.204Z,6.70
2017-08-20T19:05:56.746Z,8.07
2017-08-20T19:08:24.293Z,6.63
2017-08-20T19:10:51.837Z,6.20
2017-08-20T19:13:19.344Z,8.30
2017-08-20T19:15:47.637Z,6.33
2017-08-20T19:18:15.145Z,7.03
2017-08-20T19:20:42.709Z,5.77
2017-08-20T19:23:10.977Z,8.40
2017-08-20T19:25:38.534Z,4.40
2017-08-20T19:28:06.103Z,9.07
2017-08-20T19:30:33.617Z,8.27
2017-08-20T19:33:01.136Z,5.80
2017-08-20T19:35:29.561Z,6.27
2017-08-20T19:37:58.313Z,7.00
2017-08-20T19:40:29.780Z,9.87
2017-08-20T19:42:59.373Z,9.20
2017-08-20T19:45:27.047Z,9.90
2017-08-20T19:47:54.722Z,12.23
2017-08-20T19:50:22.224Z,8.10
2017-08-20T19:52:49.816Z,6.67
2017-08-20T19:55:17.359Z,7.30
2017-08-20T19:57:45.004Z,10.77
2017-08-20T20:00:12.503Z,7.23
2017-08-20T20:02:40.020Z,6.43
2017-08-20T20:05:07.628Z,7.73
2017-08-20T20:07:35.110Z,4.23
2017-08-20T20:10:02.717Z,8.57
2017-08-20T20:12:30.198Z,8.83
2017-08-20T20:14:57.712Z,7.13
2017-08-20T20:17:25.201Z,6.50
2017-08-20T20:19:52.775Z,8.33
2017-08-20T20:22:20.340Z,7.37
2017-08-20T20:24:47.823Z,10.17
2017-08-20T20:27:15.450Z,8.70
2017-08-20T20:29:42.974Z,9.10
2017-08-20T20:32:10.505Z,4.53
2017-08-20T20:34:37.997Z,10.03
2017-08-20T20:37:05.492Z,5.83
2017-08-20T20:39:32.977Z,6.10
2017-08-20T20:42:00.476Z,9.50
2017-08-20T20:44:28.021Z,7.50
2017-08-20T20:46:55.518Z,7.60
2017-08-20T20:49:23.012Z,6.23
2017-08-20T20:51:50.557Z,7.77
2017-08-20T20:54:18.108Z,11.57
2017-08-20T20:56:45.604Z,5.37
2017-08-20T20:59:13.215Z,8.40
2017-08-20T21:01:40.836Z,11.90
2017-08-20T21:04:08.317Z,8.00
2017-08-20T21:06:35.808Z,4.87
2017-08-20T21:09:03.369Z,5.20
2017-08-20T21:11:30.907Z,7.33
2017-08-20T21:13:58.457Z,7.97
2017-08-20T21:16:26.000Z,9.17
2017-08-20T21:18:53.532Z,7.00
2017-08-20T21:21:21.017Z,10.33
2017-08-20T21:23:48.621Z,12.57
2017-08-20T21:26:16.110Z,8.10
2017-08-20T21:28:43.712Z,5.87
2017-08-20T21:31:11.197Z,6.23
2017-08-20T21:33:38.717Z,7.50
2017-08-20T21:36:06.207Z,14.43
2017-08-20T21:38:33.784Z,9.00
2017-08-20T21:41:01.327Z,7.20
2017-08-20T21:43:28.809Z,6.03
2017-08-20T21:45:56.318Z,9.93
2017-08-20T21:48:23.891Z,8.07
2017-08-20T21:50:51.397Z,10.63
2017-08-20T21:53:18.957Z,9.50
2017-08-20T21:55:46.500Z,14.13
2017-08-20T21:58:14.042Z,9.10
2017-08-20T22:00:41.544Z,5.77
2017-08-20T22:03:09.120Z,7.37
2017-08-20T22:05:36.668Z,8.20
2017-08-20T22:08:04.157Z,11.30
2017-08-20T22:10:31.761Z,8.00
2017-08-20T22:12:59.248Z,9.50
2017-08-20T22:15:26.845Z,6.47
2017-08-20T22:17:54.326Z,7.27
2017-08-20T22:20:21.932Z,6.80
2017-08-20T22:22:49.410Z,8.30
2017-08-20T22:25:16.913Z,9.70
2017-08-20T22:27:44.467Z,11.83
2017-08-20T22:30:12.036Z,7.63
2017-08-20T22:32:39.541Z,7.90
2017-08-20T22:35:40.168Z,7.30
2017-08-20T22:38:07.712Z,6.97
2017-08-20T22:40:35.212Z,7.73
2017-08-20T22:43:02.818Z,9.70
2017-08-20T22:45:30.449Z,11.60
2017-08-20T22:47:58.093Z,7.30
2017-08-20T22:50:25.632Z,8.60
2017-08-20T22:52:53.136Z,8.57
2017-08-20T22:55:20.729Z,9.50
2017-08-20T22:57:48.305Z,9.27
2017-08-20T23:00:15.794Z,11.23
2017-08-20T23:02:43.300Z,12.63
2017-08-20T23:05:10.801Z,8.87
2017-08-20T23:07:38.340Z,8.30
2017-08-20T23:10:05.885Z,13.83
2017-08-20T23:12:33.392Z,6.27
2017-08-20T23:15:00.971Z,8.90
2017-08-20T23:17:28.473Z,8.70
2017-08-20T23:19:56.156Z,7.30
2017-08-20T23:22:23.640Z,5.63
2017-08-20T23:24:51.148Z,8.50
2017-08-20T23:27:18.629Z,8.00
2017-08-20T23:29:46.128Z,10.27
2017-08-20T23:32:13.612Z,8.33
2017-08-20T23:34:41.120Z,7.87
2017-08-20T23:37:08.606Z,10.47
2017-08-20T23:39:36.105Z,7.10
2017-08-20T23:42:03.589Z,7.47
2017-08-20T23:44:31.173Z,11.20
2017-08-20T23:46:58.848Z,8.20
2017-08-20T23:49:26.357Z,10.03
2017-08-20T23:51:53.936Z,8.20
2017-08-20T23:54:21.687Z,9.83
2017-08-20T23:56:49.225Z,13.97
2017-08-20T23:59:16.724Z,10.23
